Time;durP1;ratioP1;P1;durP2;ratioP2;P2;SDS_P1;SDS_P2;PMS_P1;PMS_P2;Temp;Humidity;BMP_temperature;BMP_pressure;BME280_temperature;BME280_humidity;BME280_pressure;Samples;Min_cycle;Max_cycle;Signal;HPM_P1;HPM_P2
2022/03/05 00:00:39;;;;;;;59.73;13.20;;;;;;;;;;5014394;28;20461;-77
2022/03/05 00:03:07;;;;;;;58.93;13.93;;;;;;;;;;5016599;28;20518;-77
2022/03/05 00:05:34;;;;;;;49.73;12.97;;;;;;;;;;5017713;28;20458;-77
2022/03/05 00:08:03;;;;;;;60.40;14.07;;;;;;;;;;5019306;28;20458;-78
2022/03/05 00:10:31;;;;;;;53.73;13.77;;;;;;;;;;5020086;28;20541;-78
2022/03/05 00:12:59;;;;;;;63.23;14.10;;;;;;;;;;5018832;28;20544;-77
2022/03/05 00:15:28;;;;;;;55.80;14.00;;;;;;;;;;5020893;28;20492;-78
2022/03/05 00:17:55;;;;;;;52.77;14.10;;;;;;;;;;5018693;28;20485;-77
2022/03/05 00:20:23;;;;;;;60.47;13.13;;;;;;;;;;5019204;28;20546;-78
2022/03/05 00:22:52;;;;;;;61.90;14.67;;;;;;;;;;5019106;28;20482;-77
2022/03/05 00:25:20;;;;;;;59.57;12.80;;;;;;;;;;5023602;28;21036;-78
2022/03/05 00:27:49;;;;;;;60.07;13.13;;;;;;;;;;5019749;28;20446;-78
2022/03/05 00:30:16;;;;;;;65.43;13.70;;;;;;;;;;5018769;28;20462;-78
2022/03/05 00:32:43;;;;;;;69.50;13.77;;;;;;;;;;5020320;28;20892;-78
2022/03/05 00:35:11;;;;;;;60.47;14.43;;;;;;;;;;5022167;28;21304;-78
2022/03/05 00:37:39;;;;;;;55.67;13.23;;;;;;;;;;5019852;28;20563;-78
2022/03/05 00:40:07;;;;;;;73.27;15.53;;;;;;;;;;5019846;28;20847;-78
2022/03/05 00:42:34;;;;;;;55.10;13.60;;;;;;;;;;5020952;28;20471;-78
2022/03/05 00:45:03;;;;;;;59.50;14.90;;;;;;;;;;5020541;28;20573;-78
2022/03/05 00:47:30;;;;;;;55.23;14.57;;;;;;;;;;5020509;28;20444;-78
2022/03/05 00:49:57;;;;;;;59.67;13.53;;;;;;;;;;5018881;28;20458;-77
2022/03/05 00:52:24;;;;;;;54.40;14.30;;;;;;;;;;5019580;28;20482;-77
2022/03/05 00:54:51;;;;;;;60.57;14.17;;;;;;;;;;5017524;28;20489;-77
2022/03/05 00:57:18;;;;;;;58.83;15.07;;;;;;;;;;5017713;28;20458;-77
2022/03/05 00:59:46;;;;;;;65.37;14.20;;;;;;;;;;5018907;28;20837;-77
2022/03/05 01:02:14;;;;;;;54.07;14.10;;;;;;;;;;5020537;28;20492;-77
2022/03/05 01:04:41;;;;;;;59.20;14.80;;;;;;;;;;5020478;28;20493;-77
2022/03/05 01:07:09;;;;;;;58.73;14.27;;;;;;;;;;5020662;28;20457;-78
2022/03/05 01:09:36;;;;;;;51.10;13.63;;;;;;;;;;5023301;28;20470;-78
2022/03/05 01:12:04;;;;;;;70.60;15.50;;;;;;;;;;5019263;28;20520;-78
2022/03/05 01:14:31;;;;;;;60.93;15.10;;;;;;;;;;5018652;28;20521;-78
2022/03/05 01:16:58;;;;;;;57.27;13.47;;;;;;;;;;5020423;28;20496;-78
2022/03/05 01:19:27;;;;;;;61.27;14.53;;;;;;;;;;5020723;28;20979;-78
2022/03/05 01:21:54;;;;;;;61.20;13.90;;;;;;;;;;5017701;28;20964;-76
2022/03/05 01:24:21;;;;;;;59.87;13.83;;;;;;;;;;5014778;28;20462;-77
2022/03/05 01:26:48;;;;;;;55.17;14.73;;;;;;;;;;5019481;28;20520;-78
2022/03/05 01:29:15;;;;;;;62.73;13.80;;;;;;;;;;5018269;28;20613;-77
2022/03/05 01:31:43;;;;;;;68.10;13.97;;;;;;;;;;5024080;28;20538;-77
2022/03/05 01:34:10;;;;;;;54.77;12.83;;;;;;;;;;5025524;28;20510;-76
2022/03/05 01:36:38;;;;;;;53.37;13.00;;;;;;;;;;5026300;28;20513;-77
2022/03/05 01:39:06;;;;;;;59.47;14.40;;;;;;;;;;5023521;28;20862;-77
2022/03/05 01:41:33;;;;;;;65.90;13.97;;;;;;;;;;5022474;28;21113;-77
2022/03/05 01:44:01;;;;;;;56.47;12.83;;;;;;;;;;5019220;28;21079;-77
2022/03/05 01:46:28;;;;;;;70.57;14.13;;;;;;;;;;5024840;28;20451;-77
2022/03/05 01:48:56;;;;;;;58.50;14.40;;;;;;;;;;5014173;28;20455;-77
2022/03/05 01:51:23;;;;;;;70.13;14.53;;;;;;;;;;5017048;28;20485;-78
2022/03/05 01:53:51;;;;;;;55.53;13.63;;;;;;;;;;5015244;28;20882;-77
2022/03/05 01:56:19;;;;;;;55.80;12.87;;;;;;;;;;5019075;28;20513;-77
2022/03/05 01:58:47;;;;;;;63.83;15.33;;;;;;;;;;5018779;28;20545;-78
2022/03/05 02:01:14;;;;;;;60.73;14.23;;;;;;;;;;5022250;28;20442;-78
2022/03/05 02:03:43;;;;;;;60.70;13.33;;;;;;;;;;5019739;28;20836;-79
2022/03/05 02:06:11;;;;;;;57.07;14.73;;;;;;;;;;5014073;28;20489;-78
2022/03/05 02:08:38;;;;;;;64.47;15.73;;;;;;;;;;5020646;28;20457;-77
2022/03/05 02:11:07;;;;;;;57.07;13.60;;;;;;;;;;5023050;28;20510;-77
2022/03/05 02:13:36;;;;;;;63.63;14.10;;;;;;;;;;5020959;28;20937;-77
2022/03/05 02:16:03;;;;;;;61.07;13.87;;;;;;;;;;5016343;28;20845;-78
2022/03/05 02:18:30;;;;;;;64.50;14.37;;;;;;;;;;5019526;28;20470;-77
2022/03/05 02:20:59;;;;;;;62.67;13.67;;;;;;;;;;5015370;28;20545;-77
2022/03/05 02:23:26;;;;;;;57.20;14.07;;;;;;;;;;5015055;28;20870;-75
2022/03/05 02:25:54;;;;;;;56.63;13.70;;;;;;;;;;5013970;28;20455;-76
2022/03/05 02:28:21;;;;;;;55.67;13.73;;;;;;;;;;5013983;28;20901;-76
2022/03/05 02:30:48;;;;;;;64.53;14.83;;;;;;;;;;5013332;28;20459;-76
2022/03/05 02:33:15;;;;;;;61.40;13.70;;;;;;;;;;5017504;28;20565;-75
2022/03/05 02:35:46;;;;;;;65.30;13.97;;;;;;;;;;5012398;28;20491;-78
2022/03/05 02:38:15;;;;;;;53.10;13.17;;;;;;;;;;5013043;28;20528;-76
2022/03/05 02:40:43;;;;;;;67.97;15.13;;;;;;;;;;5019563;28;20558;-76
2022/03/05 02:43:10;;;;;;;61.57;14.30;;;;;;;;;;5017771;28;20482;-75
2022/03/05 02:45:40;;;;;;;64.33;15.27;;;;;;;;;;5016196;28;20458;-76
2022/03/05 02:48:08;;;;;;;60.77;14.03;;;;;;;;;;5011616;28;20458;-76
2022/03/05 02:50:35;;;;;;;66.83;13.50;;;;;;;;;;5018361;28;20455;-76
2022/03/05 02:53:03;;;;;;;72.93;14.00;;;;;;;;;;5013885;28;20541;-76
2022/03/05 02:55:31;;;;;;;65.27;14.30;;;;;;;;;;5014690;28;20490;-77
2022/03/05 02:57:58;;;;;;;60.17;13.90;;;;;;;;;;5009568;28;20956;-76
2022/03/05 03:00:26;;;;;;;55.53;13.47;;;;;;;;;;5015192;28;20483;-77
2022/03/05 03:02:53;;;;;;;56.00;13.47;;;;;;;;;;5012878;28;20843;-75
2022/03/05 03:05:21;;;;;;;55.47;13.73;;;;;;;;;;5012150;28;20470;-77
2022/03/05 03:07:48;;;;;;;59.10;14.17;;;;;;;;;;5013483;28;20486;-77
2022/03/05 03:10:16;;;;;;;53.00;13.00;;;;;;;;;;5014493;28;20467;-77
2022/03/05 03:12:45;;;;;;;65.57;15.03;;;;;;;;;;5011197;28;20788;-76
2022/03/05 03:15:13;;;;;;;61.47;13.57;;;;;;;;;;5011246;28;20538;-78
2022/03/05 03:17:41;;;;;;;59.47;12.93;;;;;;;;;;5017295;28;20471;-77
2022/03/05 03:20:09;;;;;;;55.60;12.70;;;;;;;;;;5018235;28;20461;-77
2022/03/05 03:22:36;;;;;;;58.13;13.47;;;;;;;;;;5013550;28;21380;-77
2022/03/05 03:25:04;;;;;;;65.73;13.70;;;;;;;;;;5017487;28;20472;-77
2022/03/05 03:27:31;;;;;;;64.47;13.63;;;;;;;;;;5016967;28;20464;-78
2022/03/05 03:29:59;;;;;;;56.30;13.43;;;;;;;;;;5017964;28;20525;-77
2022/03/05 03:32:26;;;;;;;65.07;14.27;;;;;;;;;;5019939;28;20486;-77
2022/03/05 03:34:54;;;;;;;62.57;13.00;;;;;;;;;;5017243;28;20462;-77
2022/03/05 03:37:21;;;;;;;64.00;12.77;;;;;;;;;;5018568;28;20497;-76
2022/03/05 03:39:48;;;;;;;59.57;13.33;;;;;;;;;;5018460;28;20541;-77
2022/03/05 03:42:15;;;;;;;62.37;14.13;;;;;;;;;;5013623;28;20482;-77
2022/03/05 03:44:42;;;;;;;62.97;13.33;;;;;;;;;;5015211;28;20983;-77
2022/03/05 03:47:11;;;;;;;54.17;13.20;;;;;;;;;;5015772;28;20470;-77
2022/03/05 03:49:38;;;;;;;60.47;13.73;;;;;;;;;;5015503;28;20558;-77
2022/03/05 03:52:05;;;;;;;61.83;14.37;;;;;;;;;;5015801;28;20469;-76
2022/03/05 03:54:33;;;;;;;58.23;13.30;;;;;;;;;;5011978;28;20841;-77
2022/03/05 03:57:00;;;;;;;61.97;14.87;;;;;;;;;;5018751;28;20499;-77
2022/03/05 03:59:27;;;;;;;50.67;13.27;;;;;;;;;;5022683;28;20464;-77
2022/03/05 04:01:54;;;;;;;59.27;14.33;;;;;;;;;;5022870;28;20497;-77
2022/03/05 04:04:23;;;;;;;64.27;13.10;;;;;;;;;;5015593;28;20458;-78
2022/03/05 04:09:34;;;;;;;61.27;12.67;;;;;;;;;;5016243;28;20457;-77
2022/03/05 04:12:02;;;;;;;63.57;13.60;;;;;;;;;;5014707;28;21043;-77
2022/03/05 04:14:30;;;;;;;59.77;12.43;;;;;;;;;;5018492;28;20450;-77
2022/03/05 04:16:57;;;;;;;55.00;12.80;;;;;;;;;;5019132;28;20494;-77
2022/03/05 04:19:26;;;;;;;60.50;13.80;;;;;;;;;;5024145;28;20454;-77
2022/03/05 04:21:53;;;;;;;56.70;13.20;;;;;;;;;;5029104;28;20478;-77
2022/03/05 04:24:20;;;;;;;55.67;12.20;;;;;;;;;;5033242;28;20871;-79
2022/03/05 04:26:47;;;;;;;58.20;12.67;;;;;;;;;;5032953;28;20574;-76
2022/03/05 04:29:14;;;;;;;49.27;12.03;;;;;;;;;;5028385;28;20494;-76
2022/03/05 04:31:41;;;;;;;46.30;11.27;;;;;;;;;;5023382;28;20553;-78
2022/03/05 04:34:09;;;;;;;51.37;12.87;;;;;;;;;;5023798;28;20509;-77
2022/03/05 04:36:38;;;;;;;53.83;12.23;;;;;;;;;;5024934;28;20545;-78
2022/03/05 04:39:05;;;;;;;60.63;13.97;;;;;;;;;;5020492;28;20554;-76
2022/03/05 04:41:32;;;;;;;64.17;13.07;;;;;;;;;;5015279;28;20546;-76
2022/03/05 04:43:59;;;;;;;57.27;12.87;;;;;;;;;;5018906;28;20905;-76
2022/03/05 04:46:26;;;;;;;50.77;11.37;;;;;;;;;;5017470;28;20851;-76
2022/03/05 04:48:54;;;;;;;66.17;14.57;;;;;;;;;;5021213;28;20467;-77
2022/03/05 04:51:21;;;;;;;59.87;12.37;;;;;;;;;;5017469;28;20726;-76
2022/03/05 04:53:49;;;;;;;59.33;13.93;;;;;;;;;;5018861;28;20518;-76
2022/03/05 04:56:17;;;;;;;51.80;12.27;;;;;;;;;;5017631;28;20500;-76
2022/03/05 04:58:44;;;;;;;55.37;12.57;;;;;;;;;;5017444;28;20467;-76
2022/03/05 05:01:11;;;;;;;55.87;12.90;;;;;;;;;;5019614;28;20501;-76
2022/03/05 05:03:38;;;;;;;60.77;12.50;;;;;;;;;;5018004;28;20490;-76
2022/03/05 05:06:06;;;;;;;51.13;12.47;;;;;;;;;;5017708;28;20451;-76
2022/03/05 05:08:33;;;;;;;61.10;13.23;;;;;;;;;;5021451;28;20554;-77
2022/03/05 05:11:02;;;;;;;59.73;13.63;;;;;;;;;;5022139;28;21022;-77
2022/03/05 05:13:29;;;;;;;52.17;12.97;;;;;;;;;;5023675;28;20489;-76
2022/03/05 05:15:56;;;;;;;54.33;13.33;;;;;;;;;;5019453;28;20832;-77
2022/03/05 05:18:23;;;;;;;50.77;12.70;;;;;;;;;;5025178;28;21073;-76
2022/03/05 05:20:51;;;;;;;65.33;13.87;;;;;;;;;;5021738;28;20446;-77
2022/03/05 05:23:18;;;;;;;56.73;12.87;;;;;;;;;;5022558;28;21145;-77
2022/03/05 05:25:46;;;;;;;52.53;12.63;;;;;;;;;;5020259;28;20500;-78
2022/03/05 05:28:14;;;;;;;53.97;13.47;;;;;;;;;;5015088;28;20482;-79
2022/03/05 05:30:41;;;;;;;56.23;12.97;;;;;;;;;;5019080;28;20499;-77
2022/03/05 05:33:08;;;;;;;49.83;12.53;;;;;;;;;;5020115;28;20522;-77
2022/03/05 05:35:36;;;;;;;55.90;11.40;;;;;;;;;;5025828;28;20446;-77
2022/03/05 05:38:03;;;;;;;57.90;13.30;;;;;;;;;;5028400;28;20542;-79
2022/03/05 05:40:30;;;;;;;59.50;12.60;;;;;;;;;;5028478;28;20486;-79
2022/03/05 05:42:57;;;;;;;50.50;11.43;;;;;;;;;;5030566;28;20585;-77
2022/03/05 05:45:26;;;;;;;60.37;12.63;;;;;;;;;;5024901;28;20467;-80
2022/03/05 05:47:58;;;;;;;63.07;12.70;;;;;;;;;;5028883;28;20454;-79
2022/03/05 05:50:25;;;;;;;53.60;11.87;;;;;;;;;;5027664;28;20909;-76
2022/03/05 05:52:52;;;;;;;53.73;12.37;;;;;;;;;;5026536;28;21086;-77
2022/03/05 05:55:19;;;;;;;49.93;11.23;;;;;;;;;;5017037;28;21011;-77
2022/03/05 05:57:46;;;;;;;55.23;11.47;;;;;;;;;;5016266;28;20616;-78
2022/03/05 06:00:14;;;;;;;65.20;13.60;;;;;;;;;;5019147;28;20835;-77
2022/03/05 06:02:42;;;;;;;55.27;11.90;;;;;;;;;;5017139;28;20471;-78
2022/03/05 06:05:10;;;;;;;54.43;11.90;;;;;;;;;;5016598;28;20545;-77
2022/03/05 06:07:37;;;;;;;46.83;12.47;;;;;;;;;;5021607;28;20535;-77
2022/03/05 06:10:05;;;;;;;55.97;11.93;;;;;;;;;;5025127;28;20502;-76
2022/03/05 06:12:32;;;;;;;51.93;12.77;;;;;;;;;;5024673;28;20492;-77
2022/03/05 06:15:00;;;;;;;56.97;13.10;;;;;;;;;;5022453;28;20466;-76
2022/03/05 06:17:27;;;;;;;52.83;12.63;;;;;;;;;;5020344;28;20485;-77
2022/03/05 06:19:56;;;;;;;54.40;12.20;;;;;;;;;;5019843;28;20451;-77
2022/03/05 06:22:24;;;;;;;60.93;12.87;;;;;;;;;;5021452;28;20505;-77
2022/03/05 06:24:51;;;;;;;56.30;12.30;;;;;;;;;;5020888;28;20498;-77
2022/03/05 06:27:18;;;;;;;61.27;12.87;;;;;;;;;;5021795;28;20447;-77
2022/03/05 06:29:45;;;;;;;57.27;13.47;;;;;;;;;;5018728;28;21072;-77
2022/03/05 06:32:12;;;;;;;48.53;12.07;;;;;;;;;;5017059;28;20619;-77
2022/03/05 06:34:40;;;;;;;56.33;12.63;;;;;;;;;;5017701;28;20529;-77
2022/03/05 06:37:09;;;;;;;52.40;12.40;;;;;;;;;;5018144;28;20561;-77
2022/03/05 06:39:36;;;;;;;58.10;13.10;;;;;;;;;;5020719;28;20451;-77
2022/03/05 06:42:03;;;;;;;54.07;12.67;;;;;;;;;;5018957;28;20470;-77
2022/03/05 06:44:31;;;;;;;56.57;12.57;;;;;;;;;;5019556;28;20474;-77
2022/03/05 06:46:58;;;;;;;62.87;13.73;;;;;;;;;;5020443;28;20465;-77
2022/03/05 06:49:26;;;;;;;60.33;13.53;;;;;;;;;;5019105;28;20474;-76
2022/03/05 06:51:53;;;;;;;55.13;12.47;;;;;;;;;;5020517;28;20573;-76
2022/03/05 06:54:21;;;;;;;57.17;14.70;;;;;;;;;;5022769;28;20451;-76
2022/03/05 06:56:49;;;;;;;50.80;12.87;;;;;;;;;;5018904;28;20795;-79
2022/03/05 06:59:16;;;;;;;60.10;13.50;;;;;;;;;;5023212;28;20550;-76
2022/03/05 07:01:43;;;;;;;63.53;14.47;;;;;;;;;;5015801;28;20451;-77
2022/03/05 07:04:11;;;;;;;57.47;14.27;;;;;;;;;;5017413;28;20738;-76
2022/03/05 07:06:38;;;;;;;64.50;15.17;;;;;;;;;;5021804;28;20459;-79
2022/03/05 07:09:05;;;;;;;59.57;14.97;;;;;;;;;;5025930;28;20466;-78
2022/03/05 07:11:34;;;;;;;52.67;14.77;;;;;;;;;;5025028;28;20442;-75
2022/03/05 07:14:01;;;;;;;49.43;13.17;;;;;;;;;;5028335;28;20493;-79
2022/03/05 07:16:29;;;;;;;57.00;14.53;;;;;;;;;;5029571;28;20601;-78
2022/03/05 07:18:56;;;;;;;61.57;16.40;;;;;;;;;;5026375;28;20463;-77
2022/03/05 07:21:23;;;;;;;62.53;15.77;;;;;;;;;;5021449;28;20493;-78
2022/03/05 07:23:51;;;;;;;57.03;14.37;;;;;;;;;;5020992;28;20502;-78
2022/03/05 07:26:18;;;;;;;54.30;15.10;;;;;;;;;;5019194;28;20475;-76
2022/03/05 07:28:47;;;;;;;61.20;15.83;;;;;;;;;;5018201;28;20869;-77
2022/03/05 07:31:14;;;;;;;48.40;13.80;;;;;;;;;;5021550;28;20466;-77
2022/03/05 07:33:41;;;;;;;58.37;15.70;;;;;;;;;;5024673;28;20482;-76
2022/03/05 07:36:08;;;;;;;50.33;14.33;;;;;;;;;;5026285;28;20494;-77
2022/03/05 07:38:35;;;;;;;61.67;16.03;;;;;;;;;;5026151;28;20478;-77
2022/03/05 07:41:03;;;;;;;55.23;14.47;;;;;;;;;;5027445;28;20465;-77
2022/03/05 07:43:30;;;;;;;51.10;14.93;;;;;;;;;;5022879;28;20470;-77
2022/03/05 07:45:58;;;;;;;60.73;15.23;;;;;;;;;;5024770;28;20476;-77
2022/03/05 07:48:25;;;;;;;57.33;14.00;;;;;;;;;;5027417;28;20442;-77
2022/03/05 07:50:53;;;;;;;62.47;15.17;;;;;;;;;;5021751;28;20469;-77
2022/03/05 07:53:20;;;;;;;54.47;15.10;;;;;;;;;;5034446;28;20478;-78
2022/03/05 07:55:48;;;;;;;55.43;14.27;;;;;;;;;;5030246;28;20501;-79
2022/03/05 07:58:15;;;;;;;60.83;16.60;;;;;;;;;;5033879;28;20481;-77
2022/03/05 08:00:42;;;;;;;56.10;14.30;;;;;;;;;;5031218;28;20557;-79
2022/03/05 08:03:11;;;;;;;51.83;15.43;;;;;;;;;;5031607;28;20224;-79
2022/03/05 08:05:38;;;;;;;50.73;15.67;;;;;;;;;;5024059;28;20291;-77
2022/03/05 08:08:06;;;;;;;47.47;16.57;;;;;;;;;;5018360;28;20215;-78
2022/03/05 08:10:33;;;;;;;49.10;15.97;;;;;;;;;;5022353;28;20299;-77
2022/03/05 08:13:00;;;;;;;49.87;16.43;;;;;;;;;;5024846;28;20219;-78
2022/03/05 08:15:27;;;;;;;53.97;16.57;;;;;;;;;;5023437;28;20227;-77
2022/03/05 08:17:55;;;;;;;48.27;16.33;;;;;;;;;;5030035;28;20229;-78
2022/03/05 08:20:24;;;;;;;44.70;15.03;;;;;;;;;;5022264;28;20196;-77
2022/03/05 08:22:51;;;;;;;48.77;15.67;;;;;;;;;;5026748;28;20224;-78
2022/03/05 08:25:19;;;;;;;46.40;15.90;;;;;;;;;;5022347;28;20207;-77
2022/03/05 08:27:46;;;;;;;42.97;14.63;;;;;;;;;;5023234;28;20204;-77
2022/03/05 08:30:13;;;;;;;49.97;17.80;;;;;;;;;;5021105;28;20200;-77
2022/03/05 08:32:41;;;;;;;41.93;14.90;;;;;;;;;;5025545;28;20228;-78
2022/03/05 08:35:09;;;;;;;45.80;16.03;;;;;;;;;;5026360;28;20204;-75
2022/03/05 08:37:38;;;;;;;45.53;15.97;;;;;;;;;;5023670;28;20623;-77
2022/03/05 08:40:06;;;;;;;47.13;16.43;;;;;;;;;;5023759;28;20287;-77
2022/03/05 08:42:34;;;;;;;47.80;16.10;;;;;;;;;;5028119;28;20228;-77
2022/03/05 08:45:01;;;;;;;46.43;16.73;;;;;;;;;;5030831;28;20632;-77
2022/03/05 08:47:28;;;;;;;47.30;16.30;;;;;;;;;;5024404;28;20220;-77
2022/03/05 08:49:56;;;;;;;46.23;17.00;;;;;;;;;;5025557;28;20217;-77
2022/03/05 08:52:23;;;;;;;43.57;16.43;;;;;;;;;;5023706;28;20228;-77
2022/03/05 08:54:51;;;;;;;47.67;17.10;;;;;;;;;;5025890;28;20211;-77
2022/03/05 08:57:18;;;;;;;45.67;17.10;;;;;;;;;;5029166;28;20227;-78
2022/03/05 08:59:46;;;;;;;44.77;17.13;;;;;;;;;;5018928;28;20220;-78
2022/03/05 09:02:13;;;;;;;51.20;17.47;;;;;;;;;;5017433;28;20224;-77
2022/03/05 09:04:40;;;;;;;46.00;17.03;;;;;;;;;;5019661;28;20210;-77
2022/03/05 09:07:07;;;;;;;54.97;17.87;;;;;;;;;;5014350;28;20210;-77
2022/03/05 09:09:34;;;;;;;50.20;17.97;;;;;;;;;;5015743;28;20208;-77
2022/03/05 09:12:03;;;;;;;49.07;19.40;;;;;;;;;;5015159;28;20879;-76
2022/03/05 09:14:30;;;;;;;60.43;20.87;;;;;;;;;;5016916;28;20300;-76
2022/03/05 09:16:58;;;;;;;56.47;19.67;;;;;;;;;;5017374;28;20295;-76
2022/03/05 09:19:25;;;;;;;58.83;19.57;;;;;;;;;;5017131;28;20208;-76
2022/03/05 09:21:52;;;;;;;56.20;17.73;;;;;;;;;;5017107;28;20213;-76
2022/03/05 09:24:19;;;;;;;51.13;18.20;;;;;;;;;;5016954;28;20311;-76
2022/03/05 09:26:46;;;;;;;59.03;19.60;;;;;;;;;;5017339;28;20298;-76
2022/03/05 09:29:16;;;;;;;53.50;19.73;;;;;;;;;;5024008;28;20208;-77
2022/03/05 09:31:43;;;;;;;50.37;18.53;;;;;;;;;;5029231;28;20727;-77
2022/03/05 09:34:10;;;;;;;53.53;19.37;;;;;;;;;;5022824;28;20573;-76
2022/03/05 09:36:37;;;;;;;51.23;18.03;;;;;;;;;;5023299;28;20686;-76
2022/03/05 09:39:04;;;;;;;55.23;18.70;;;;;;;;;;5024697;28;20326;-76
2022/03/05 09:41:31;;;;;;;57.10;18.17;;;;;;;;;;5023165;28;20305;-77
2022/03/05 09:43:59;;;;;;;49.90;17.60;;;;;;;;;;5020874;28;20576;-77
2022/03/05 09:46:29;;;;;;;36.13;15.00;;;;;;;;;;5021907;28;20378;-78
2022/03/05 09:48:56;;;;;;;35.07;14.00;;;;;;;;;;5030315;28;20213;-78
2022/03/05 09:51:24;;;;;;;37.43;15.17;;;;;;;;;;5022276;28;20208;-78
2022/03/05 09:53:53;;;;;;;39.30;14.93;;;;;;;;;;5019838;28;20286;-78
2022/03/05 09:56:20;;;;;;;38.20;13.83;;;;;;;;;;5019009;28;20213;-78
2022/03/05 09:58:48;;;;;;;36.57;14.73;;;;;;;;;;5018124;28;20235;-78
2022/03/05 10:01:15;;;;;;;36.80;14.20;;;;;;;;;;5031004;28;20208;-77
2022/03/05 10:03:47;;;;;;;31.53;13.40;;;;;;;;;;5027678;28;20244;-78
2022/03/05 10:06:16;;;;;;;41.17;14.17;;;;;;;;;;5021224;28;20204;-78
2022/03/05 10:08:55;;;;;;;33.53;14.13;;;;;;;;;;5023939;28;20204;-79
2022/03/05 10:11:23;;;;;;;33.23;13.83;;;;;;;;;;5029273;28;21260;-78
2022/03/05 10:13:50;;;;;;;34.13;13.50;;;;;;;;;;5028170;28;20266;-79
2022/03/05 10:16:25;;;;;;;33.67;13.27;;;;;;;;;;5017275;28;20270;-78
2022/03/05 10:18:54;;;;;;;41.03;14.13;;;;;;;;;;5019430;28;20226;-77
2022/03/05 10:21:28;;;;;;;33.30;13.33;;;;;;;;;;5015737;28;20196;-77
2022/03/05 10:24:04;;;;;;;38.23;14.00;;;;;;;;;;5021753;28;20313;-77
2022/03/05 10:26:50;;;;;;;38.43;13.60;;;;;;;;;;5021884;28;20207;-78
2022/03/05 10:29:21;;;;;;;38.03;14.40;;;;;;;;;;5018318;28;20250;-77
2022/03/05 10:34:51;;;;;;;33.00;13.23;;;;;;;;;;5020555;28;20474;-77
2022/03/05 10:37:20;;;;;;;33.10;12.70;;;;;;;;;;5018849;28;20664;-78
2022/03/05 10:39:51;;;;;;;37.50;13.33;;;;;;;;;;5031415;28;20254;-77
2022/03/05 10:42:18;;;;;;;28.33;12.57;;;;;;;;;;5038831;28;20292;-76
2022/03/05 10:44:59;;;;;;;35.07;13.53;;;;;;;;;;5021533;28;20315;-77
2022/03/05 10:47:26;;;;;;;29.83;12.13;;;;;;;;;;5020947;28;20215;-77
2022/03/05 10:50:01;;;;;;;35.00;13.27;;;;;;;;;;5022005;28;20240;-78
2022/03/05 10:52:44;;;;;;;32.87;13.40;;;;;;;;;;5018666;28;20216;-78
2022/03/05 10:55:22;;;;;;;31.97;12.40;;;;;;;;;;5017172;28;20275;-79
2022/03/05 10:57:58;;;;;;;32.40;12.47;;;;;;;;;;5031310;28;20691;-79
2022/03/05 11:00:26;;;;;;;35.07;12.90;;;;;;;;;;5015972;28;20290;-79
2022/03/05 11:02:57;;;;;;;31.27;13.57;;;;;;;;;;5019852;28;20277;-78
2022/03/05 11:05:34;;;;;;;32.47;12.70;;;;;;;;;;5026521;28;20212;-78
2022/03/05 11:08:04;;;;;;;31.90;12.57;;;;;;;;;;5030769;28;20253;-78
2022/03/05 11:10:31;;;;;;;35.77;12.10;;;;;;;;;;5019316;28;20219;-77
2022/03/05 11:13:02;;;;;;;30.33;11.70;;;;;;;;;;5019704;28;20233;-76
2022/03/05 11:15:29;;;;;;;30.63;11.67;;;;;;;;;;5021134;28;20231;-77
2022/03/05 11:17:58;;;;;;;31.57;12.23;;;;;;;;;;5015696;28;20750;-77
2022/03/05 11:20:25;;;;;;;30.73;12.73;;;;;;;;;;5012718;28;20203;-77
2022/03/05 11:22:53;;;;;;;31.70;12.73;;;;;;;;;;5016188;28;20322;-77
2022/03/05 11:25:23;;;;;;;31.20;12.60;;;;;;;;;;5017518;28;20227;-77
2022/03/05 11:27:54;;;;;;;29.83;11.53;;;;;;;;;;5017700;28;20214;-77
2022/03/05 11:30:21;;;;;;;29.50;11.90;;;;;;;;;;5013517;28;20650;-77
2022/03/05 11:32:48;;;;;;;32.80;12.40;;;;;;;;;;5015981;28;20238;-77
2022/03/05 11:35:19;;;;;;;30.33;12.27;;;;;;;;;;5018736;28;20638;-77
2022/03/05 11:37:50;;;;;;;28.00;11.13;;;;;;;;;;5015212;28;20204;-77
2022/03/05 11:40:39;;;;;;;28.43;11.40;;;;;;;;;;5015867;28;20210;-77
2022/03/05 11:43:16;;;;;;;26.80;11.40;;;;;;;;;;5014103;28;20294;-77
2022/03/05 11:45:48;;;;;;;25.10;10.47;;;;;;;;;;5015493;28;20287;-77
2022/03/05 11:48:28;;;;;;;28.90;11.20;;;;;;;;;;5016271;28;20655;-77
2022/03/05 11:50:56;;;;;;;21.40;8.83;;;;;;;;;;5014940;28;20644;-78
2022/03/05 11:53:24;;;;;;;24.97;9.17;;;;;;;;;;5025909;28;20227;-77
2022/03/05 11:55:52;;;;;;;23.30;9.93;;;;;;;;;;5016993;28;20207;-77
2022/03/05 11:58:27;;;;;;;19.30;7.87;;;;;;;;;;5014092;28;20725;-77
2022/03/05 12:00:56;;;;;;;18.60;8.33;;;;;;;;;;5014132;28;20226;-77
2022/03/05 12:03:24;;;;;;;20.57;8.37;;;;;;;;;;5016528;28;20224;-77
2022/03/05 12:05:55;;;;;;;18.47;7.97;;;;;;;;;;5012894;28;20290;-77
2022/03/05 12:08:40;;;;;;;17.67;7.03;;;;;;;;;;5015896;28;20283;-77
2022/03/05 12:11:10;;;;;;;18.53;6.10;;;;;;;;;;5018975;28;20736;-77
2022/03/05 12:13:41;;;;;;;13.47;6.00;;;;;;;;;;5017598;28;20232;-78
2022/03/05 12:16:14;;;;;;;18.40;6.10;;;;;;;;;;5015960;28;20201;-77
2022/03/05 12:18:41;;;;;;;16.10;6.00;;;;;;;;;;5019696;28;20315;-77
2022/03/05 12:21:09;;;;;;;16.33;7.00;;;;;;;;;;5016993;28;20291;-76
2022/03/05 12:23:36;;;;;;;14.13;6.17;;;;;;;;;;5019307;28;20224;-78
2022/03/05 12:26:05;;;;;;;11.90;4.40;;;;;;;;;;5024179;28;20207;-79
2022/03/05 12:28:40;;;;;;;10.70;4.63;;;;;;;;;;5021715;28;20200;-79
2022/03/05 12:31:07;;;;;;;11.73;5.20;;;;;;;;;;5019787;28;20683;-79
2022/03/05 12:33:34;;;;;;;12.93;5.70;;;;;;;;;;5019266;28;20230;-78
2022/03/05 12:36:02;;;;;;;13.43;4.97;;;;;;;;;;5020952;28;20215;-78
2022/03/05 12:38:29;;;;;;;13.57;5.57;;;;;;;;;;5022744;28;20228;-77
2022/03/05 12:40:56;;;;;;;13.70;6.23;;;;;;;;;;5020391;28;20578;-78
2022/03/05 12:43:23;;;;;;;16.30;7.10;;;;;;;;;;5024220;28;20231;-78
2022/03/05 12:45:52;;;;;;;12.90;6.47;;;;;;;;;;5021928;28;20210;-78
2022/03/05 12:48:20;;;;;;;13.60;6.40;;;;;;;;;;5019540;28;20758;-78
2022/03/05 12:50:48;;;;;;;15.13;6.80;;;;;;;;;;5021561;28;20239;-79
2022/03/05 12:53:17;;;;;;;15.37;6.50;;;;;;;;;;5024579;28;20310;-79
2022/03/05 12:55:45;;;;;;;14.50;6.27;;;;;;;;;;5032687;28;20215;-79
2022/03/05 12:58:13;;;;;;;13.03;6.30;;;;;;;;;;5022087;28;20237;-79
2022/03/05 13:00:42;;;;;;;18.13;6.53;;;;;;;;;;5016618;28;20291;-80
2022/03/05 13:03:12;;;;;;;15.13;6.80;;;;;;;;;;5022367;28;20626;-79
2022/03/05 13:05:40;;;;;;;14.77;6.57;;;;;;;;;;5019015;28;20553;-78
2022/03/05 13:08:07;;;;;;;14.60;6.33;;;;;;;;;;5017341;28;20283;-78
2022/03/05 13:10:34;;;;;;;13.00;6.53;;;;;;;;;;5020973;28;20410;-79
2022/03/05 13:13:03;;;;;;;14.57;6.90;;;;;;;;;;5023219;28;20219;-78
2022/03/05 13:15:31;;;;;;;16.63;6.90;;;;;;;;;;5018565;28;20735;-79
2022/03/05 13:18:09;;;;;;;14.27;6.67;;;;;;;;;;5019578;28;20223;-78
2022/03/05 13:20:37;;;;;;;14.27;6.83;;;;;;;;;;5020686;28;20227;-79
2022/03/05 13:23:05;;;;;;;15.13;6.73;;;;;;;;;;5019521;28;20247;-77
2022/03/05 13:25:39;;;;;;;16.87;7.27;;;;;;;;;;5016814;28;20295;-80
2022/03/05 13:28:06;;;;;;;15.67;7.43;;;;;;;;;;5020470;28;20215;-77
2022/03/05 13:30:33;;;;;;;16.13;6.67;;;;;;;;;;5022300;28;20205;-78
2022/03/05 13:33:00;;;;;;;16.03;7.83;;;;;;;;;;5020979;28;20342;-78
2022/03/05 13:35:28;;;;;;;16.20;7.83;;;;;;;;;;5012689;28;20242;-79
2022/03/05 13:37:58;;;;;;;15.70;7.10;;;;;;;;;;5017292;28;20671;-79
2022/03/05 13:40:27;;;;;;;16.83;7.27;;;;;;;;;;5018377;28;20316;-78
2022/03/05 13:42:58;;;;;;;15.97;7.27;;;;;;;;;;5024507;28;20282;-78
2022/03/05 13:48:28;;;;;;;18.47;7.80;;;;;;;;;;4954755;28;20632;-79
2022/03/05 13:50:56;;;;;;;17.33;7.50;;;;;;;;;;5019157;28;20570;-76
2022/03/05 13:53:24;;;;;;;16.27;7.80;;;;;;;;;;5019537;28;20231;-76
2022/03/05 13:56:02;;;;;;;16.90;7.57;;;;;;;;;;5023722;28;20212;-78
2022/03/05 13:58:31;;;;;;;15.07;7.10;;;;;;;;;;5032184;28;20279;-78
2022/03/05 14:00:58;;;;;;;14.80;7.27;;;;;;;;;;5029894;28;20234;-78
2022/03/05 14:03:25;;;;;;;17.57;7.60;;;;;;;;;;5016677;28;20339;-78
2022/03/05 14:05:52;;;;;;;17.50;7.43;;;;;;;;;;5013694;28;20207;-77
2022/03/05 14:08:21;;;;;;;15.77;6.33;;;;;;;;;;5018425;28;20232;-78
2022/03/05 14:10:50;;;;;;;14.93;6.63;;;;;;;;;;5016182;28;20681;-78
2022/03/05 14:13:24;;;;;;;14.83;7.33;;;;;;;;;;5015117;28;20315;-78
2022/03/05 14:15:51;;;;;;;17.20;7.60;;;;;;;;;;5016301;28;20236;-78
2022/03/05 14:18:19;;;;;;;15.33;7.13;;;;;;;;;;5016121;28;20521;-77
2022/03/05 14:20:47;;;;;;;19.20;6.40;;;;;;;;;;5013328;28;20224;-77
2022/03/05 14:23:14;;;;;;;13.60;6.00;;;;;;;;;;5015728;28;20238;-78
2022/03/05 14:25:45;;;;;;;14.03;6.20;;;;;;;;;;5019148;28;20247;-77
2022/03/05 14:28:15;;;;;;;14.70;6.40;;;;;;;;;;5025674;28;20212;-79
2022/03/05 14:30:43;;;;;;;13.00;6.37;;;;;;;;;;5029513;28;20203;-79
2022/03/05 14:33:10;;;;;;;13.70;6.33;;;;;;;;;;5023620;28;20240;-78